createdAt,value
2018-12-24T00:03:47.430Z,101231.28
2018-12-24T00:08:40.830Z,101239.08
2018-12-24T00:13:34.280Z,101248.08
2018-12-24T00:18:27.698Z,101235.88
2018-12-24T00:23:22.500Z,101269.30
2018-12-24T00:28:15.904Z,101278.88
2018-12-24T00:33:09.329Z,101274.97
2018-12-24T00:38:02.763Z,101295.73
2018-12-24T00:42:56.210Z,101308.70
2018-12-24T00:47:49.630Z,101330.88
2018-12-24T00:52:43.058Z,101351.19
2018-12-24T00:57:36.497Z,101359.27
2018-12-24T01:02:29.941Z,101367.69
2018-12-24T01:07:23.486Z,101387.00
2018-12-24T01:12:24.351Z,101400.89
2018-12-24T01:17:12.323Z,101412.96
2018-12-24T01:22:05.708Z,101439.36
2018-12-24T01:27:01.066Z,101454.60
2018-12-24T01:31:54.623Z,101473.73
2018-12-24T01:36:48.054Z,101486.91
2018-12-24T01:41:41.462Z,101497.41
2018-12-24T01:46:34.931Z,101501.22
2018-12-24T01:51:28.343Z,101524.08
2018-12-24T01:56:21.786Z,101523.05
2018-12-24T02:01:15.227Z,101538.25
2018-12-24T02:06:08.671Z,101537.73
2018-12-24T02:11:02.115Z,101564.85
2018-12-24T02:15:55.553Z,101567.06
2018-12-24T02:20:48.971Z,101579.09
2018-12-24T02:25:42.406Z,101584.94
2018-12-24T02:30:35.871Z,101585.14
2018-12-24T02:35:29.310Z,101595.94
2018-12-24T02:40:22.824Z,101601.53
2018-12-24T02:45:16.242Z,101610.48
2018-12-24T02:50:11.067Z,101618.01
2018-12-24T02:55:04.531Z,101621.45
2018-12-24T02:59:57.993Z,101645.38
2018-12-24T03:10:33.228Z,101658.42
2018-12-24T03:15:26.096Z,101671.76
2018-12-24T03:20:18.978Z,101667.01
2018-12-24T03:25:11.824Z,101677.44
2018-12-24T03:30:05.101Z,101690.77
2018-12-24T03:34:57.949Z,101696.79
2018-12-24T03:39:50.839Z,101708.23
2018-12-24T03:44:43.695Z,101716.72
2018-12-24T03:49:36.538Z,101723.03
2018-12-24T03:54:30.503Z,101720.28
2018-12-24T03:59:23.343Z,101733.06
2018-12-24T04:04:16.247Z,101741.42
2018-12-24T04:09:09.092Z,101747.31
2018-12-24T04:14:01.982Z,101757.38
2018-12-24T04:18:54.821Z,101783.58
2018-12-24T04:23:47.709Z,101792.98
2018-12-24T04:28:40.539Z,101794.81
2018-12-24T04:33:33.428Z,101799.48
2018-12-24T04:38:26.265Z,101808.11
2018-12-24T04:43:19.169Z,101810.38
2018-12-24T04:48:12.034Z,101823.27
2018-12-24T04:53:04.942Z,101835.00
2018-12-24T04:57:57.757Z,101841.88
2018-12-24T05:02:50.637Z,101860.60
2018-12-24T05:07:43.518Z,101866.23
2018-12-24T05:12:36.373Z,101888.48
2018-12-24T05:17:29.238Z,101900.59
2018-12-24T05:22:22.123Z,101921.64
2018-12-24T05:27:15.002Z,101936.52
2018-12-24T05:32:07.862Z,101947.68
2018-12-24T05:37:00.936Z,101954.20
2018-12-24T05:41:53.792Z,101971.11
2018-12-24T05:46:46.670Z,101976.73
2018-12-24T05:51:39.515Z,101986.16
2018-12-24T05:56:32.396Z,101996.69
2018-12-24T06:01:25.290Z,102006.96
2018-12-24T06:06:18.211Z,102025.33
2018-12-24T06:11:11.077Z,102030.10
2018-12-24T06:16:04.104Z,102041.00
2018-12-24T06:20:56.974Z,102050.83
2018-12-24T06:25:49.794Z,102068.70
2018-12-24T06:30:42.689Z,102091.02
2018-12-24T06:35:35.518Z,102101.95
2018-12-24T06:40:28.399Z,102118.67
2018-12-24T06:45:21.271Z,102123.77
2018-12-24T06:50:15.741Z,102130.63
2018-12-24T06:55:08.783Z,102137.05
2018-12-24T07:00:01.673Z,102139.30
2018-12-24T07:04:54.497Z,102143.58
2018-12-24T07:09:47.386Z,102152.06
2018-12-24T07:14:40.240Z,102163.20
2018-12-24T07:19:33.172Z,102169.14
2018-12-24T07:24:26.422Z,102173.72
2018-12-24T07:29:19.306Z,102184.85
2018-12-24T07:34:12.217Z,102189.63
2018-12-24T07:39:06.615Z,102202.39
2018-12-24T07:43:59.466Z,102218.52
2018-12-24T07:48:52.324Z,102224.89
2018-12-24T07:53:45.237Z,102223.66
2018-12-24T07:58:39.469Z,102229.39
2018-12-24T08:03:32.542Z,102231.52
2018-12-24T08:08:25.400Z,102243.08
2018-12-24T08:13:18.266Z,102245.27
2018-12-24T08:18:11.097Z,102251.72
2018-12-24T08:23:03.963Z,102253.48
2018-12-24T08:27:57.823Z,102268.92
2018-12-24T08:32:50.700Z,102286.10
2018-12-24T08:37:43.550Z,102291.46
2018-12-24T08:42:36.419Z,102310.98
2018-12-24T08:47:29.288Z,102324.99
2018-12-24T08:52:22.169Z,102339.56
2018-12-24T08:57:15.016Z,102354.14
2018-12-24T09:02:07.918Z,102364.02
2018-12-24T09:07:00.784Z,102380.25
2018-12-24T09:11:53.646Z,102392.42
2018-12-24T09:16:46.536Z,102398.98
2018-12-24T09:21:39.400Z,102408.73
2018-12-24T09:26:32.271Z,102432.91
2018-12-24T09:31:25.179Z,102439.75
2018-12-24T09:36:18.059Z,102449.31
2018-12-24T09:41:11.622Z,102465.55
2018-12-24T09:46:04.477Z,102477.48
2018-12-24T09:50:57.345Z,102491.06
2018-12-24T09:55:50.332Z,102494.48
2018-12-24T10:00:43.290Z,102505.50
2018-12-24T10:05:36.172Z,102511.45
2018-12-24T10:10:30.365Z,102509.08
2018-12-24T10:15:23.232Z,102510.73
2018-12-24T10:20:16.138Z,102518.22
2018-12-24T10:25:11.315Z,102528.80
2018-12-24T10:30:05.828Z,102540.33
2018-12-24T10:34:58.671Z,102544.75
2018-12-24T10:39:51.661Z,102548.77
2018-12-24T10:44:44.524Z,102550.69
2018-12-24T10:49:39.197Z,102546.33
2018-12-24T10:54:32.025Z,102553.95
2018-12-24T10:59:24.920Z,102560.42
2018-12-24T11:04:17.774Z,102549.50
2018-12-24T11:09:10.650Z,102552.92
2018-12-24T11:14:03.533Z,102548.16
2018-12-24T11:18:56.417Z,102549.87
2018-12-24T11:23:49.315Z,102549.98
2018-12-24T11:28:42.226Z,102548.93
2018-12-24T11:33:35.131Z,102550.09
2018-12-24T11:38:28.091Z,102561.52
2018-12-24T11:43:20.995Z,102567.88
2018-12-24T11:48:13.924Z,102574.03
2018-12-24T11:53:06.845Z,102574.36
2018-12-24T11:57:59.770Z,102567.95
2018-12-24T12:02:52.631Z,102569.02
2018-12-24T12:07:45.497Z,102578.69
2018-12-24T12:12:38.358Z,102583.20
2018-12-24T12:17:31.206Z,102583.26
2018-12-24T12:22:25.164Z,102578.83
2018-12-24T12:27:18.033Z,102578.05
2018-12-24T12:32:10.865Z,102584.00
2018-12-24T12:37:03.749Z,102601.65
2018-12-24T12:41:56.617Z,102600.91
2018-12-24T12:46:49.487Z,102604.14
2018-12-24T12:51:42.372Z,102617.16
2018-12-24T12:56:35.274Z,102612.41
2018-12-24T13:01:28.153Z,102626.95
2018-12-24T13:06:21.148Z,102630.31
2018-12-24T13:11:14.017Z,102636.11
2018-12-24T13:16:06.874Z,102648.41
2018-12-24T13:20:59.753Z,102659.24
2018-12-24T13:25:52.601Z,102674.36
2018-12-24T13:30:45.597Z,102667.92
2018-12-24T13:35:38.470Z,102657.78
2018-12-24T13:40:31.348Z,102656.67
2018-12-24T13:45:24.210Z,102665.68
2018-12-24T13:50:17.150Z,102677.27
2018-12-24T13:55:09.994Z,102685.48
2018-12-24T14:00:03.047Z,102685.95
2018-12-24T14:04:56.370Z,102697.80
2018-12-24T14:09:49.236Z,102715.08
2018-12-24T14:14:42.129Z,102723.88
2018-12-24T14:19:34.980Z,102733.76
2018-12-24T14:24:30.601Z,102739.52
2018-12-24T14:29:25.026Z,102743.94
2018-12-24T14:34:19.973Z,102749.73
2018-12-24T14:39:13.261Z,102757.88
2018-12-24T14:44:06.954Z,102771.28
2018-12-24T14:48:59.806Z,102776.50
2018-12-24T14:53:52.693Z,102791.44
2018-12-24T14:58:45.659Z,102802.13
2018-12-24T15:03:38.526Z,102819.19
2018-12-24T15:08:31.378Z,102830.55
2018-12-24T15:13:24.263Z,102837.86
2018-12-24T15:18:17.134Z,102842.24
2018-12-24T15:23:10.114Z,102837.20
2018-12-24T15:28:02.962Z,102834.88
2018-12-24T15:32:55.852Z,102844.06
2018-12-24T15:37:48.707Z,102845.36
2018-12-24T15:42:41.570Z,102852.34
2018-12-24T15:47:36.252Z,102858.13
2018-12-24T15:52:32.238Z,102794.30
2018-12-24T15:57:25.107Z,102863.06
2018-12-24T16:02:17.974Z,102863.33
2018-12-24T16:07:12.711Z,102857.08
2018-12-24T16:12:05.626Z,102856.34
2018-12-24T16:16:58.513Z,102856.38
2018-12-24T16:21:51.388Z,102850.97
2018-12-24T16:26:44.268Z,102864.19
2018-12-24T16:31:38.534Z,102863.46
2018-12-24T16:36:31.483Z,102854.41
2018-12-24T16:41:24.329Z,102858.94
2018-12-24T16:46:17.173Z,102867.96
2018-12-24T16:51:10.053Z,102860.63
2018-12-24T16:56:02.926Z,102878.64
2018-12-24T17:00:55.810Z,102876.17
2018-12-24T17:05:48.690Z,102877.31
2018-12-24T17:10:41.608Z,102886.28
2018-12-24T17:15:34.426Z,102880.02
2018-12-24T17:20:27.310Z,102873.34
2018-12-24T17:25:20.172Z,102873.39
2018-12-24T17:30:13.049Z,102887.09
2018-12-24T17:35:05.929Z,102896.08
2018-12-24T17:39:58.817Z,102910.61
2018-12-24T17:44:51.684Z,102924.39
2018-12-24T17:49:44.551Z,102925.36
2018-12-24T17:54:37.478Z,102920.27
2018-12-24T17:59:30.412Z,102926.08
2018-12-24T18:04:23.290Z,102934.41
2018-12-24T18:09:16.524Z,102948.27
2018-12-24T18:14:09.372Z,102960.47
2018-12-24T18:19:05.242Z,102966.75
2018-12-24T18:23:58.136Z,102974.84
2018-12-24T18:28:50.950Z,102975.84
2018-12-24T18:33:43.814Z,102991.36
2018-12-24T18:38:36.670Z,103001.61
2018-12-24T18:43:29.546Z,103008.58
2018-12-24T18:48:22.391Z,103031.08
2018-12-24T18:53:15.237Z,103046.47
2018-12-24T18:58:08.099Z,103035.77
2018-12-24T19:03:00.988Z,103055.39
2018-12-24T19:07:54.157Z,103040.70
2018-12-24T19:12:47.018Z,103079.39
2018-12-24T19:17:41.528Z,103059.41
2018-12-24T19:22:35.393Z,103055.69
2018-12-24T19:27:30.160Z,103059.31
2018-12-24T19:32:23.046Z,103076.99
2018-12-24T19:37:15.903Z,103083.84
2018-12-24T19:42:08.757Z,103082.42
2018-12-24T19:47:01.636Z,103084.92
2018-12-24T19:51:54.511Z,103079.22
2018-12-24T19:56:47.381Z,103083.38
2018-12-24T20:01:40.232Z,103099.75
2018-12-24T20:06:33.145Z,103100.31
2018-12-24T20:11:26.344Z,103091.13
2018-12-24T20:16:19.211Z,103095.78
2018-12-24T20:21:12.051Z,103098.66
2018-12-24T20:26:04.933Z,103094.69
2018-12-24T20:30:57.798Z,103099.58
2018-12-24T20:35:50.727Z,103102.49
2018-12-24T20:40:43.617Z,103097.42
2018-12-24T20:45:36.715Z,103096.19
2018-12-24T20:50:29.573Z,103104.88
2018-12-24T20:55:22.446Z,103110.45
2018-12-24T21:00:15.344Z,103117.70
2018-12-24T21:05:08.223Z,103121.75
2018-12-24T21:10:01.114Z,103113.75
2018-12-24T21:14:54.167Z,103106.27
2018-12-24T21:19:47.067Z,103108.64
2018-12-24T21:24:39.940Z,103117.84
2018-12-24T21:29:32.870Z,103111.28
2018-12-24T21:34:25.721Z,103110.14
2018-12-24T21:39:18.630Z,103110.03
2018-12-24T21:44:11.489Z,103100.73
2018-12-24T21:49:04.329Z,103100.55
2018-12-24T21:53:57.186Z,103097.37
2018-12-24T21:58:50.039Z,103093.55
2018-12-24T22:03:42.886Z,103103.73
2018-12-24T22:08:35.795Z,103101.41
2018-12-24T22:13:28.683Z,103109.17
2018-12-24T22:18:21.576Z,103108.55
2018-12-24T22:23:16.164Z,103102.43
2018-12-24T22:28:09.045Z,103099.65
2018-12-24T22:33:01.913Z,103100.83
2018-12-24T22:37:54.773Z,103098.59
2018-12-24T22:42:47.734Z,103103.00
2018-12-24T22:47:40.613Z,103103.80
2018-12-24T22:52:33.480Z,103110.36
2018-12-24T22:57:26.353Z,103109.00
2018-12-24T23:02:19.315Z,103117.45
2018-12-24T23:07:12.211Z,103118.81
2018-12-24T23:12:05.107Z,103115.48
2018-12-24T23:16:59.240Z,103114.75
2018-12-24T23:21:52.247Z,103109.75
2018-12-24T23:26:46.229Z,103104.92
2018-12-24T23:31:39.103Z,103104.16
2018-12-24T23:36:32.007Z,103100.77
2018-12-24T23:41:24.871Z,103103.42
2018-12-24T23:46:17.736Z,103102.97
2018-12-24T23:51:10.603Z,103107.13
2018-12-24T23:56:03.438Z,103100.03
